Porec, Croatia

12:32 PM CET on March 01, 2015 (GMT +0100)
Nova Vas Porečka | Change Station
CLOSE
Current Station
Personal Weather Station
Location: Nova Vas, ISTRIA COUNTY
Elevation: 436 ft
Nearby Weather Stations

Elev 436 ft 45.26 °N, 13.66 °E | Updated 34 seconds ago

Partly Cloudy
Partly Cloudy
51.8 °F
Feels Like 51.8 °F
N
3.4
Wind Variable Wind from SW
Gusts 4.9 mph

Today
High -- | Low -- °F
--% Chance of Precip.
Yesterday
High -- | Low -- °F
Precip. -- in
6:44 AM 5:52 PM
Waxing Gibbous, 84% visible
Pressure 30.04 in
Visibility 6.2 miles
Clouds Few 2600 ft
Dew Point 42 °F
Humidity 70%
Rainfall 0.00 in
Snow Depth Not available.
UV 3.0 out of 12
Pollen Not available.
Air Quality Not available.
Flu Activity Not available.
METAR LDPL 011130Z 26009KT 240V300 9999 FEW026 12/04 Q1017 NOSIG

More Conditions Fewer Conditions

Pressure 30.04 in
Visibility 6.2 miles
Clouds Few 2600 ft
Dew Point 42 °F
Humidity 70%
Rainfall 0.00 in
Snow Depth Not available.
UV 3.0 out of 12
Pollen Not available.
Air Quality Not available.
Flu Activity Not available.
METAR LDPL 011130Z 26009KT 240V300 9999 FEW026 12/04 Q1017 NOSIG

More Conditions Fewer Conditions

10-Day Weather Forecast

Almanac

Astronomy

Mar. 01, 2015 Rise Set
Actual Time
Civil Twilight
Nautical Twilight
Astronomical Twilight
Moon
Length of Visible Light
Length of Day
Tomorrow will be .
, % of the Moon is Illuminated

Today's Extremes

Country Highs Country Lows

Community

WunderPhotos

Upload Photos

1,801,364 photos uploaded!

WunderBlogs® & News

Nearby

Air Quality

  Air Quality AQ Index Pollutant
Not available.

Snow Depth

Station Depth Elevation

Earthquake Activity

City Distance Mag. Time & Date
Minimum magnitude displayed is 2.5.

Coastal Water Temperatures

Place Temperature

Nearby Weather Stations